Hauptseite
Satellitenwetter 15-Tage PrognosenKlimaSeewetter Wirbelstürme Blitz FlughäfenFAQ Newsletter Über uns
Wetter : Europa Afrika Nordamerika Südamerika Asien Australien-Ozeanien Andere
Sprachen Kontakt

Stuttgart, Deutschland

Echterdingen

Breite: 48-41N, Länge: 009-13E, Höhe: 396 m


METAR: EDDS 171820Z 10004KT CAVOK 12/M05 Q1016 NOSIG
short-TAF: verfallen (47753 Stunden)
long-TAF: EDDS 171700Z 1718/1818 22004KT CAVOK BECMG 1807/1810 31006KT PROB30 TEMPO 1807/1811 RA

Zeit: 20:33 (18:33 UTC)

Beobachtung

Neuester Wetterbericht von vor 13 Minuten, um 18:20 UTC  
Wind 04 kt aus Ost
Temperatur 12°C
Luftfeuchtigkeit 30%
Luftdruck 1016 hPa
Sichtweite 10 km oder mehr
keine Wolken unter 1500 m und keine Kumulonimbus oder Gewitterwolken

Maßeinheiten ändern

Prognose

Neuester Wetterbericht von vor 1 Stunde und 6 Minuten, um 17:27 UTC  
Gültige Prognose vom 17 um 18 UTC bis 18 um 18 UTC
Wind 04 kt aus Südwest
Sichtweite 10 km oder mehr
keine Wolken unter 1500 m und keine Kumulonimbus oder Gewitterwolken
Übergehend zu
vom 18 um 07 UTC bis 18 um 10 UTC
Wind 06 kt aus Nordwest
Wahrscheinlichkeit 30% :
Zeitweise
vom 18 um 07 UTC bis 18 um 11 UTC
Regen
Die Angaben auf diesen Webseiten unterliegen einer Erklärung über den Haftungsausschluss
Wetter : Europa Afrika Nordamerika Südamerika Asien Australien-Ozeanien Andere
Satellitenwetter 15-Tage PrognosenKlimaSeewetter Wirbelstürme Blitz FlughäfenFAQ Sprachen Kontakt Newsletter Über uns